Aviation Digital Data Service (ADDS)

Output produced by METARs form (0622 UTC 21 January 2019)
found at http://www.aviationweather.gov/metar/data/
 
METAR text: LFOE 210600Z AUTO 32002KT 3000 BR NSC M04/M05 Q1022 TEMPO 0800 FZFG VV///
Conditions at: LFOE (EVREUX/FAUVILLE , FR) observed 0600 UTC 21 January 2019
Temperature: -4.0°C (25°F)
Dewpoint: -5.0°C (23°F) [RH = 93%]
Pressure (altimeter): 30.18 inches Hg (1022.0 mb)
Winds: from the NW (320 degrees) at 2 MPH (2 knots; 1.0 m/s)
Visibility: 1.86 miles (2.99 km)
Ceiling: at least 12,000 feet AGL
Clouds: sky clear below 12,000 feet AGL
Weather: BR  (mist)

METAR text: LFOE 210530Z AUTO VRB02KT 2900 BR NSC M04/M05 Q1022 TEMPO 0800 FZFG VV///
Conditions at: LFOE (EVREUX/FAUVILLE , FR) observed 0530 UTC 21 January 2019
Temperature: -4.0°C (25°F)
Dewpoint: -5.0°C (23°F) [RH = 93%]
Pressure (altimeter): 30.18 inches Hg (1022.0 mb)
Winds: variable direction winds at 2 MPH (2 knots; 1.0 m/s)
Visibility: 1.80 miles (2.90 km)
Ceiling: at least 12,000 feet AGL
Clouds: sky clear below 12,000 feet AGL
Weather: BR  (mist)

METAR text: LFOE 210500Z AUTO 30005KT 2900 BR NSC M05/M05 Q1022 TEMPO 0800 FZFG VV///
Conditions at: LFOE (EVREUX/FAUVILLE , FR) observed 0500 UTC 21 January 2019
Temperature: -5.0°C (23°F)
Dewpoint: -5.0°C (23°F) [RH = 100%]
Pressure (altimeter): 30.18 inches Hg (1022.0 mb)
Winds: from the WNW (300 degrees) at 6 MPH (5 knots; 2.6 m/s)
Visibility: 1.80 miles (2.90 km)
Ceiling: at least 12,000 feet AGL
Clouds: sky clear below 12,000 feet AGL
Weather: BR  (mist)

METAR text: LFOE 210430Z AUTO 34003KT 2600 BR NSC M04/M04 Q1022
Conditions at: LFOE (EVREUX/FAUVILLE , FR) observed 0430 UTC 21 January 2019
Temperature: -4.0°C (25°F)
Dewpoint: -4.0°C (25°F) [RH = 100%]
Pressure (altimeter): 30.18 inches Hg (1022.0 mb)
Winds: from the NNW (340 degrees) at 3 MPH (3 knots; 1.5 m/s)
Visibility: 1.62 miles (2.61 km)
Ceiling: at least 12,000 feet AGL
Clouds: sky clear below 12,000 feet AGL
Weather: BR  (mist)

METAR text: LFOE 210400Z AUTO VRB02KT 2500 BR NSC M04/M04 Q1022
Conditions at: LFOE (EVREUX/FAUVILLE , FR) observed 0400 UTC 21 January 2019
Temperature: -4.0°C (25°F)
Dewpoint: -4.0°C (25°F) [RH = 100%]
Pressure (altimeter): 30.18 inches Hg (1022.0 mb)
Winds: variable direction winds at 2 MPH (2 knots; 1.0 m/s)
Visibility: 1.55 miles (2.49 km)
Ceiling: at least 12,000 feet AGL
Clouds: sky clear below 12,000 feet AGL
Weather: BR  (mist)

METAR text: LFOE 210330Z AUTO 34003KT 2400 BR NSC M04/M04 Q1022
Conditions at: LFOE (EVREUX/FAUVILLE , FR) observed 0330 UTC 21 January 2019
Temperature: -4.0°C (25°F)
Dewpoint: -4.0°C (25°F) [RH = 100%]
Pressure (altimeter): 30.18 inches Hg (1022.0 mb)
Winds: from the NNW (340 degrees) at 3 MPH (3 knots; 1.5 m/s)
Visibility: 1.49 miles (2.40 km)
Ceiling: at least 12,000 feet AGL
Clouds: sky clear below 12,000 feet AGL
Weather: BR  (mist)

METAR text: LFOE 210300Z AUTO 34003KT 2100 BR NSC M04/M04 Q1022 TEMPO 0800 FZFG VV///
Conditions at: LFOE (EVREUX/FAUVILLE , FR) observed 0300 UTC 21 January 2019
Temperature: -4.0°C (25°F)
Dewpoint: -4.0°C (25°F) [RH = 100%]
Pressure (altimeter): 30.18 inches Hg (1022.0 mb)
Winds: from the NNW (340 degrees) at 3 MPH (3 knots; 1.5 m/s)
Visibility: 1.30 miles (2.09 km)
Ceiling: at least 12,000 feet AGL
Clouds: sky clear below 12,000 feet AGL
Weather: BR  (mist)

METAR text: LFOE 210230Z AUTO 33003KT 2200 0450 R22/P2000 BCFG NSC M04/M04 Q1022 TEMPO 0800 FZFG VV///
Conditions at: LFOE (EVREUX/FAUVILLE , FR) observed 0230 UTC 21 January 2019
Temperature: -4.0°C (25°F)
Dewpoint: -4.0°C (25°F) [RH = 100%]
Pressure (altimeter): 30.18 inches Hg (1022.0 mb)
Winds: from the NNW (330 degrees) at 3 MPH (3 knots; 1.5 m/s)
Visibility: 1.37 miles (2.20 km)
Ceiling: at least 12,000 feet AGL
Clouds: sky clear below 12,000 feet AGL
Weather: BCFG  (patches of fog)

METAR text: LFOE 210200Z AUTO 32003KT 2300 BR NSC M04/M04 Q1022 TEMPO 0800 FZFG VV///
Conditions at: LFOE (EVREUX/FAUVILLE , FR) observed 0200 UTC 21 January 2019
Temperature: -4.0°C (25°F)
Dewpoint: -4.0°C (25°F) [RH = 100%]
Pressure (altimeter): 30.18 inches Hg (1022.0 mb)
Winds: from the NW (320 degrees) at 3 MPH (3 knots; 1.5 m/s)
Visibility: 1.43 miles (2.30 km)
Ceiling: at least 12,000 feet AGL
Clouds: sky clear below 12,000 feet AGL
Weather: BR  (mist)

METAR text: LFOE 210130Z AUTO 32003KT 2800 BR NSC M03/M03 Q1022 TEMPO 0800 FZFG VV///
Conditions at: LFOE (EVREUX/FAUVILLE , FR) observed 0130 UTC 21 January 2019
Temperature: -3.0°C (27°F)
Dewpoint: -3.0°C (27°F) [RH = 100%]
Pressure (altimeter): 30.18 inches Hg (1022.0 mb)
Winds: from the NW (320 degrees) at 3 MPH (3 knots; 1.5 m/s)
Visibility: 1.74 miles (2.80 km)
Ceiling: at least 12,000 feet AGL
Clouds: sky clear below 12,000 feet AGL
Weather: BR  (mist)

METAR text: LFOE 210100Z AUTO VRB03KT 3200 BR NSC M03/M03 Q1022 TEMPO 0800 FZFG VV///
Conditions at: LFOE (EVREUX/FAUVILLE , FR) observed 0100 UTC 21 January 2019
Temperature: -3.0°C (27°F)
Dewpoint: -3.0°C (27°F) [RH = 100%]
Pressure (altimeter): 30.18 inches Hg (1022.0 mb)
Winds: variable direction winds at 3 MPH (3 knots; 1.5 m/s)
Visibility: 1.99 miles (3.20 km)
Ceiling: at least 12,000 feet AGL
Clouds: sky clear below 12,000 feet AGL
Weather: BR  (mist)

METAR text: LFOE 210030Z AUTO 30003KT 3500 BR NSC M02/M02 Q1022 TEMPO 0800 FZFG VV///
Conditions at: LFOE (EVREUX/FAUVILLE , FR) observed 0030 UTC 21 January 2019
Temperature: -2.0°C (28°F)
Dewpoint: -2.0°C (28°F) [RH = 100%]
Pressure (altimeter): 30.18 inches Hg (1022.0 mb)
Winds: from the WNW (300 degrees) at 3 MPH (3 knots; 1.5 m/s)
Visibility: 2.17 miles (3.49 km)
Ceiling: at least 12,000 feet AGL
Clouds: sky clear below 12,000 feet AGL
Weather: BR  (mist)

METAR text: LFOE 210000Z AUTO 30004KT 4500 BR NSC M02/M02 Q1022 TEMPO 0800 FZFG VV///
Conditions at: LFOE (EVREUX/FAUVILLE , FR) observed 0000 UTC 21 January 2019
Temperature: -2.0°C (28°F)
Dewpoint: -2.0°C (28°F) [RH = 100%]
Pressure (altimeter): 30.18 inches Hg (1022.0 mb)
Winds: from the WNW (300 degrees) at 5 MPH (4 knots; 2.1 m/s)
Visibility: 2.80 miles (4.51 km)
Ceiling: at least 12,000 feet AGL
Clouds: sky clear below 12,000 feet AGL
Weather: BR  (mist)

METAR text: LFOE 202330Z AUTO 30004KT 4400 BR NSC M02/M02 Q1021 TEMPO 0800 FZFG VV///
Conditions at: LFOE (EVREUX/FAUVILLE , FR) observed 2330 UTC 20 January 2019
Temperature: -2.0°C (28°F)
Dewpoint: -2.0°C (28°F) [RH = 100%]
Pressure (altimeter): 30.15 inches Hg (1021.0 mb)
Winds: from the WNW (300 degrees) at 5 MPH (4 knots; 2.1 m/s)
Visibility: 2.73 miles (4.39 km)
Ceiling: at least 12,000 feet AGL
Clouds: sky clear below 12,000 feet AGL
Weather: BR  (mist)

METAR text: LFOE 202300Z AUTO 30003KT 5000 BR NSC M01/M02 Q1021 TEMPO 0800 FZFG VV///
Conditions at: LFOE (EVREUX/FAUVILLE , FR) observed 2300 UTC 20 January 2019
Temperature: -1.0°C (30°F)
Dewpoint: -2.0°C (28°F) [RH = 93%]
Pressure (altimeter): 30.15 inches Hg (1021.0 mb)
Winds: from the WNW (300 degrees) at 3 MPH (3 knots; 1.5 m/s)
Visibility: 3 miles ( 5 km)
Ceiling: at least 12,000 feet AGL
Clouds: sky clear below 12,000 feet AGL
Weather: BR  (mist)

METAR text: LFOE 202230Z AUTO 34002KT 6000 NSC M01/M02 Q1021 TEMPO 0800 FZFG VV///
Conditions at: LFOE (EVREUX/FAUVILLE , FR) observed 2230 UTC 20 January 2019
Temperature: -1.0°C (30°F)
Dewpoint: -2.0°C (28°F) [RH = 93%]
Pressure (altimeter): 30.15 inches Hg (1021.0 mb)
Winds: from the NNW (340 degrees) at 2 MPH (2 knots; 1.0 m/s)
Visibility: 4 miles ( 6 km)
Ceiling: at least 12,000 feet AGL
Clouds: sky clear below 12,000 feet AGL
Weather: no significant weather observed at this time

METAR text: LFOE 202200Z AUTO VRB03KT 6000 FEW018 M00/M01 Q1021 TEMPO 0800 FZFG VV///
Conditions at: LFOE (EVREUX/FAUVILLE , FR) observed 2200 UTC 20 January 2019
Temperature: 0.0°C (32°F)
Dewpoint: -1.0°C (30°F) [RH = 93%]
Pressure (altimeter): 30.15 inches Hg (1021.0 mb)
Winds: variable direction winds at 3 MPH (3 knots; 1.5 m/s)
Visibility: 4 miles ( 6 km)
Ceiling: at least 12,000 feet AGL
Clouds: few clouds at 1800 feet AGL
Weather: no significant weather observed at this time

METAR text: LFOE 202130Z AUTO 33003KT 290V010 7000 OVC018 01/M00 Q1020 TEMPO 0800 FZFG VV///
Conditions at: LFOE (EVREUX/FAUVILLE , FR) observed 2130 UTC 20 January 2019
Temperature: 1.0°C (34°F)
Dewpoint: 0.0°C (32°F) [RH = 93%]
Pressure (altimeter): 30.12 inches Hg (1020.0 mb)
Winds: from the NNW (330 degrees) at 3 MPH (3 knots; 1.5 m/s)
Visibility: 4 miles ( 7 km)
Ceiling: 1800 feet AGL
Clouds: overcast cloud deck at 1800 feet AGL
Weather: no significant weather observed at this time

METAR text: LFOE 202100Z AUTO 33004KT 300V360 7000 OVC019 02/00 Q1020 TEMPO 0800 FZFG VV///
Conditions at: LFOE (EVREUX/FAUVILLE , FR) observed 2100 UTC 20 January 2019
Temperature: 2.0°C (36°F)
Dewpoint: 0.0°C (32°F) [RH = 87%]
Pressure (altimeter): 30.12 inches Hg (1020.0 mb)
Winds: from the NNW (330 degrees) at 5 MPH (4 knots; 2.1 m/s)
Visibility: 4 miles ( 7 km)
Ceiling: 1900 feet AGL
Clouds: overcast cloud deck at 1900 feet AGL
Weather: no significant weather observed at this time

METAR text: LFOE 202030Z AUTO 32004KT 290V360 8000 OVC018 02/00 Q1020 TEMPO 0800 FZFG VV///
Conditions at: LFOE (EVREUX/FAUVILLE , FR) observed 2030 UTC 20 January 2019
Temperature: 2.0°C (36°F)
Dewpoint: 0.0°C (32°F) [RH = 87%]
Pressure (altimeter): 30.12 inches Hg (1020.0 mb)
Winds: from the NW (320 degrees) at 5 MPH (4 knots; 2.1 m/s)
Visibility: 5 miles ( 8 km)
Ceiling: 1800 feet AGL
Clouds: overcast cloud deck at 1800 feet AGL
Weather: no significant weather observed at this time

METAR text: LFOE 202000Z AUTO 35006KT 310V020 9000 OVC014 02/00 Q1020 NOSIG
Conditions at: LFOE (EVREUX/FAUVILLE , FR) observed 2000 UTC 20 January 2019
Temperature: 2.0°C (36°F)
Dewpoint: 0.0°C (32°F) [RH = 87%]
Pressure (altimeter): 30.12 inches Hg (1020.0 mb)
Winds: from the N (350 degrees) at 7 MPH (6 knots; 3.1 m/s)
Visibility: 6 miles ( 9 km)
Ceiling: 1400 feet AGL
Clouds: overcast cloud deck at 1400 feet AGL
Weather: no significant weather observed at this time

METAR text: LFOE 201930Z AUTO 01007KT 340V040 8000 OVC011 02/01 Q1020 NOSIG
Conditions at: LFOE (EVREUX/FAUVILLE , FR) observed 1930 UTC 20 January 2019
Temperature: 2.0°C (36°F)
Dewpoint: 1.0°C (34°F) [RH = 93%]
Pressure (altimeter): 30.12 inches Hg (1020.0 mb)
Winds: from the N (10 degrees) at 8 MPH (7 knots; 3.6 m/s)
Visibility: 5 miles ( 8 km)
Ceiling: 1100 feet AGL
Clouds: overcast cloud deck at 1100 feet AGL
Weather: no significant weather observed at this time

METAR text: LFOE 201900Z AUTO 01008KT 8000 SCT011 BKN017 OVC025 03/01 Q1019 BECMG BKN010
Conditions at: LFOE (EVREUX/FAUVILLE , FR) observed 1900 UTC 20 January 2019
Temperature: 3.0°C (37°F)
Dewpoint: 1.0°C (34°F) [RH = 87%]
Pressure (altimeter): 30.09 inches Hg (1019.0 mb)
Winds: from the N (10 degrees) at 9 MPH (8 knots; 4.1 m/s)
Visibility: 5 miles ( 8 km)
Ceiling: 1700 feet AGL
Clouds: scattered clouds at 1100 feet AGL
broken clouds at 1700 feet AGL
overcast cloud deck at 2500 feet AGL
Weather: no significant weather observed at this time

METAR text: LFOE 201830Z AUTO 36009KT 9999 FEW012 BKN022 OVC027 03/02 Q1019 BECMG BKN010
Conditions at: LFOE (EVREUX/FAUVILLE , FR) observed 1830 UTC 20 January 2019
Temperature: 3.0°C (37°F)
Dewpoint: 2.0°C (36°F) [RH = 93%]
Pressure (altimeter): 30.09 inches Hg (1019.0 mb)
Winds: from the N (360 degrees) at 10 MPH (9 knots; 4.6 m/s)
Visibility: 6 or more miles (10+ km)
Ceiling: 2200 feet AGL
Clouds: few clouds at 1200 feet AGL
broken clouds at 2200 feet AGL
overcast cloud deck at 2700 feet AGL
Weather: no significant weather observed at this time

METAR text: LFOE 201800Z AUTO 35005KT 320V020 9999 OVC027 03/02 Q1018 BECMG BKN010
Conditions at: LFOE (EVREUX/FAUVILLE , FR) observed 1800 UTC 20 January 2019
Temperature: 3.0°C (37°F)
Dewpoint: 2.0°C (36°F) [RH = 93%]
Pressure (altimeter): 30.06 inches Hg (1018.0 mb)
Winds: from the N (350 degrees) at 6 MPH (5 knots; 2.6 m/s)
Visibility: 6 or more miles (10+ km)
Ceiling: 2700 feet AGL
Clouds: overcast cloud deck at 2700 feet AGL
Weather: no significant weather observed at this time

METAR text: LFOE 201730Z AUTO 36003KT 5000 BR OVC029 03/02 Q1018 BECMG BKN010
Conditions at: LFOE (EVREUX/FAUVILLE , FR) observed 1730 UTC 20 January 2019
Temperature: 3.0°C (37°F)
Dewpoint: 2.0°C (36°F) [RH = 93%]
Pressure (altimeter): 30.06 inches Hg (1018.0 mb)
Winds: from the N (360 degrees) at 3 MPH (3 knots; 1.5 m/s)
Visibility: 3 miles ( 5 km)
Ceiling: 2900 feet AGL
Clouds: overcast cloud deck at 2900 feet AGL
Weather: BR  (mist)

METAR text: LFOE 201700Z AUTO 02003KT 5000 BR OVC030 03/02 Q1017 BECMG BKN010
Conditions at: LFOE (EVREUX/FAUVILLE , FR) observed 1700 UTC 20 January 2019
Temperature: 3.0°C (37°F)
Dewpoint: 2.0°C (36°F) [RH = 93%]
Pressure (altimeter): 30.03 inches Hg (1017.0 mb)
Winds: from the NNE (20 degrees) at 3 MPH (3 knots; 1.5 m/s)
Visibility: 3 miles ( 5 km)
Ceiling: 3000 feet AGL
Clouds: overcast cloud deck at 3000 feet AGL
Weather: BR  (mist)

METAR text: LFOE 201630Z AUTO 02003KT 5000 BR FEW008 OVC029 03/02 Q1017 BECMG BKN010
Conditions at: LFOE (EVREUX/FAUVILLE , FR) observed 1630 UTC 20 January 2019
Temperature: 3.0°C (37°F)
Dewpoint: 2.0°C (36°F) [RH = 93%]
Pressure (altimeter): 30.03 inches Hg (1017.0 mb)
Winds: from the NNE (20 degrees) at 3 MPH (3 knots; 1.5 m/s)
Visibility: 3 miles ( 5 km)
Ceiling: 2900 feet AGL
Clouds: few clouds at 800 feet AGL
overcast cloud deck at 2900 feet AGL
Weather: BR  (mist)

METAR text: LFOE 201600Z AUTO 03003KT 8000 SCT009 OVC016 03/03 Q1016 BECMG BKN010
Conditions at: LFOE (EVREUX/FAUVILLE , FR) observed 1600 UTC 20 January 2019
Temperature: 3.0°C (37°F)
Dewpoint: 3.0°C (37°F) [RH = 100%]
Pressure (altimeter): 30.00 inches Hg (1016.0 mb)
Winds: from the NNE (30 degrees) at 3 MPH (3 knots; 1.5 m/s)
Visibility: 5 miles ( 8 km)
Ceiling: 1600 feet AGL
Clouds: scattered clouds at 900 feet AGL
overcast cloud deck at 1600 feet AGL
Weather: no significant weather observed at this time

METAR text: LFOE 201530Z AUTO 36005KT 8000 OVC011 04/03 Q1016 NOSIG
Conditions at: LFOE (EVREUX/FAUVILLE , FR) observed 1530 UTC 20 January 2019
Temperature: 4.0°C (39°F)
Dewpoint: 3.0°C (37°F) [RH = 93%]
Pressure (altimeter): 30.00 inches Hg (1016.0 mb)
Winds: from the N (360 degrees) at 6 MPH (5 knots; 2.6 m/s)
Visibility: 5 miles ( 8 km)
Ceiling: 1100 feet AGL
Clouds: overcast cloud deck at 1100 feet AGL
Weather: no significant weather observed at this time

METAR text: LFOE 201500Z AUTO 34005KT 310V020 9000 BKN013 OVC019 03/03 Q1016 NOSIG
Conditions at: LFOE (EVREUX/FAUVILLE , FR) observed 1500 UTC 20 January 2019
Temperature: 3.0°C (37°F)
Dewpoint: 3.0°C (37°F) [RH = 100%]
Pressure (altimeter): 30.00 inches Hg (1016.0 mb)
Winds: from the NNW (340 degrees) at 6 MPH (5 knots; 2.6 m/s)
Visibility: 6 miles ( 9 km)
Ceiling: 1300 feet AGL
Clouds: broken clouds at 1300 feet AGL
overcast cloud deck at 1900 feet AGL
Weather: no significant weather observed at this time

METAR text: LFOE 201430Z AUTO 33005KT 300V010 9000 BKN008 BKN012 OVC019 03/03 Q1015 BECMG BKN010
Conditions at: LFOE (EVREUX/FAUVILLE , FR) observed 1430 UTC 20 January 2019
Temperature: 3.0°C (37°F)
Dewpoint: 3.0°C (37°F) [RH = 100%]
Pressure (altimeter): 29.97 inches Hg (1015.0 mb)
Winds: from the NNW (330 degrees) at 6 MPH (5 knots; 2.6 m/s)
Visibility: 6 miles ( 9 km)
Ceiling: 800 feet AGL
Clouds: broken clouds at 800 feet AGL
broken clouds at 1200 feet AGL
overcast cloud deck at 1900 feet AGL
Weather: no significant weather observed at this time

METAR text: LFOE 201400Z AUTO 33005KT 300V010 9999 OVC008 03/03 Q1015 TEMPO 4000 -DZ
Conditions at: LFOE (EVREUX/FAUVILLE , FR) observed 1400 UTC 20 January 2019
Temperature: 3.0°C (37°F)
Dewpoint: 3.0°C (37°F) [RH = 100%]
Pressure (altimeter): 29.97 inches Hg (1015.0 mb)
Winds: from the NNW (330 degrees) at 6 MPH (5 knots; 2.6 m/s)
Visibility: 6 or more miles (10+ km)
Ceiling: 800 feet AGL
Clouds: overcast cloud deck at 800 feet AGL
Weather: no significant weather observed at this time

METAR text: LFOE 201330Z AUTO 36004KT 330V030 9999 BKN006 OVC025 03/03 Q1015 TEMPO 4000 -DZ
Conditions at: LFOE (EVREUX/FAUVILLE , FR) observed 1330 UTC 20 January 2019
Temperature: 3.0°C (37°F)
Dewpoint: 3.0°C (37°F) [RH = 100%]
Pressure (altimeter): 29.97 inches Hg (1015.0 mb)
Winds: from the N (360 degrees) at 5 MPH (4 knots; 2.1 m/s)
Visibility: 6 or more miles (10+ km)
Ceiling: 600 feet AGL
Clouds: broken clouds at 600 feet AGL
overcast cloud deck at 2500 feet AGL
Weather: no significant weather observed at this time

METAR text: LFOE 201300Z AUTO 35005KT 320V020 6000 OVC005 02/02 Q1015 TEMPO 4000 -DZ
Conditions at: LFOE (EVREUX/FAUVILLE , FR) observed 1300 UTC 20 January 2019
Temperature: 2.0°C (36°F)
Dewpoint: 2.0°C (36°F) [RH = 100%]
Pressure (altimeter): 29.97 inches Hg (1015.0 mb)
Winds: from the N (350 degrees) at 6 MPH (5 knots; 2.6 m/s)
Visibility: 4 miles ( 6 km)
Ceiling: 500 feet AGL
Clouds: overcast cloud deck at 500 feet AGL
Weather: no significant weather observed at this time

METAR text: LFOE 201230Z AUTO 36005KT 4300 BR OVC005 02/02 Q1015 NOSIG
Conditions at: LFOE (EVREUX/FAUVILLE , FR) observed 1230 UTC 20 January 2019
Temperature: 2.0°C (36°F)
Dewpoint: 2.0°C (36°F) [RH = 100%]
Pressure (altimeter): 29.97 inches Hg (1015.0 mb)
Winds: from the N (360 degrees) at 6 MPH (5 knots; 2.6 m/s)
Visibility: 2.67 miles (4.30 km)
Ceiling: 500 feet AGL
Clouds: overcast cloud deck at 500 feet AGL
Weather: BR  (mist)

METAR text: LFOE 201200Z AUTO 02004KT 5000 BR OVC005 02/02 Q1015 NOSIG
Conditions at: LFOE (EVREUX/FAUVILLE , FR) observed 1200 UTC 20 January 2019
Temperature: 2.0°C (36°F)
Dewpoint: 2.0°C (36°F) [RH = 100%]
Pressure (altimeter): 29.97 inches Hg (1015.0 mb)
Winds: from the NNE (20 degrees) at 5 MPH (4 knots; 2.1 m/s)
Visibility: 3 miles ( 5 km)
Ceiling: 500 feet AGL
Clouds: overcast cloud deck at 500 feet AGL
Weather: BR  (mist)

METAR text: LFOE 201130Z AUTO 02005KT 3300 BR OVC004 02/02 Q1015 TEMPO BKN005
Conditions at: LFOE (EVREUX/FAUVILLE , FR) observed 1130 UTC 20 January 2019
Temperature: 2.0°C (36°F)
Dewpoint: 2.0°C (36°F) [RH = 100%]
Pressure (altimeter): 29.97 inches Hg (1015.0 mb)
Winds: from the NNE (20 degrees) at 6 MPH (5 knots; 2.6 m/s)
Visibility: 2.05 miles (3.30 km)
Ceiling: 400 feet AGL
Clouds: overcast cloud deck at 400 feet AGL
Weather: BR  (mist)

METAR text: LFOE 201100Z AUTO 02007KT 3200 BR OVC004 02/02 Q1014 TEMPO BKN005
Conditions at: LFOE (EVREUX/FAUVILLE , FR) observed 1100 UTC 20 January 2019
Temperature: 2.0°C (36°F)
Dewpoint: 2.0°C (36°F) [RH = 100%]
Pressure (altimeter): 29.94 inches Hg (1014.0 mb)
Winds: from the NNE (20 degrees) at 8 MPH (7 knots; 3.6 m/s)
Visibility: 1.99 miles (3.20 km)
Ceiling: 400 feet AGL
Clouds: overcast cloud deck at 400 feet AGL
Weather: BR  (mist)

METAR text: LFOE 201030Z AUTO 02005KT 3300 BR OVC003 02/02 Q1014 TEMPO BKN005
Conditions at: LFOE (EVREUX/FAUVILLE , FR) observed 1030 UTC 20 January 2019
Temperature: 2.0°C (36°F)
Dewpoint: 2.0°C (36°F) [RH = 100%]
Pressure (altimeter): 29.94 inches Hg (1014.0 mb)
Winds: from the NNE (20 degrees) at 6 MPH (5 knots; 2.6 m/s)
Visibility: 2.05 miles (3.30 km)
Ceiling: 300 feet AGL
Clouds: overcast cloud deck at 300 feet AGL
Weather: BR  (mist)

METAR text: LFOE 201000Z AUTO 01005KT 3400 BR OVC003 02/02 Q1014 TEMPO BKN005
Conditions at: LFOE (EVREUX/FAUVILLE , FR) observed 1000 UTC 20 January 2019
Temperature: 2.0°C (36°F)
Dewpoint: 2.0°C (36°F) [RH = 100%]
Pressure (altimeter): 29.94 inches Hg (1014.0 mb)
Winds: from the N (10 degrees) at 6 MPH (5 knots; 2.6 m/s)
Visibility: 2.11 miles (3.40 km)
Ceiling: 300 feet AGL
Clouds: overcast cloud deck at 300 feet AGL
Weather: BR  (mist)

METAR text: LFOE 200930Z AUTO 01003KT 2300 BR OVC003 02/02 Q1013 TEMPO 4000 -DZ BKN005
Conditions at: LFOE (EVREUX/FAUVILLE , FR) observed 0930 UTC 20 January 2019
Temperature: 2.0°C (36°F)
Dewpoint: 2.0°C (36°F) [RH = 100%]
Pressure (altimeter): 29.91 inches Hg (1013.0 mb)
Winds: from the N (10 degrees) at 3 MPH (3 knots; 1.5 m/s)
Visibility: 1.43 miles (2.30 km)
Ceiling: 300 feet AGL
Clouds: overcast cloud deck at 300 feet AGL
Weather: BR  (mist)

METAR text: LFOE 200900Z AUTO 36003KT 0550 0500 R22/0900U FG VV/// 02/02 Q1013 TEMPO 4000 -DZ BKN005
Conditions at: LFOE (EVREUX/FAUVILLE , FR) observed 0900 UTC 20 January 2019
Temperature: 2.0°C (36°F)
Dewpoint: 2.0°C (36°F) [RH = 100%]
Pressure (altimeter): 29.91 inches Hg (1013.0 mb)
Winds: from the N (360 degrees) at 3 MPH (3 knots; 1.5 m/s)
Visibility: 0.34 miles (0.55 km)
Ceiling: indefinite ceiling with vertical visibility of 0 feet AGL
Clouds: obscured sky
Weather: FG  (fog)

METAR text: LFOE 200830Z AUTO 01003KT 0650 0600 R22/0700D FG VV/// 02/02 Q1012 TEMPO 4000 -DZ BKN005
Conditions at: LFOE (EVREUX/FAUVILLE , FR) observed 0830 UTC 20 January 2019
Temperature: 2.0°C (36°F)
Dewpoint: 2.0°C (36°F) [RH = 100%]
Pressure (altimeter): 29.88 inches Hg (1012.0 mb)
Winds: from the N (10 degrees) at 3 MPH (3 knots; 1.5 m/s)
Visibility: 0.40 miles (0.64 km)
Ceiling: indefinite ceiling with vertical visibility of 0 feet AGL
Clouds: obscured sky
Weather: FG  (fog)

METAR text: LFOE 200800Z AUTO 02003KT 0450 R22/0600N FG VV/// 02/01 Q1012 BECMG 8000 NSW BKN008
Conditions at: LFOE (EVREUX/FAUVILLE , FR) observed 0800 UTC 20 January 2019
Temperature: 2.0°C (36°F)
Dewpoint: 1.0°C (34°F) [RH = 93%]
Pressure (altimeter): 29.88 inches Hg (1012.0 mb)
Winds: from the NNE (20 degrees) at 3 MPH (3 knots; 1.5 m/s)
Visibility: 0.28 miles (0.45 km)
Ceiling: indefinite ceiling with vertical visibility of 0 feet AGL
Clouds: obscured sky
Weather: FG  (fog)

METAR text: LFOE 200730Z AUTO 02004KT 0650 R22/0800N FG VV/// 02/01 Q1011 BECMG 8000 NSW BKN008
Conditions at: LFOE (EVREUX/FAUVILLE , FR) observed 0730 UTC 20 January 2019
Temperature: 2.0°C (36°F)
Dewpoint: 1.0°C (34°F) [RH = 93%]
Pressure (altimeter): 29.85 inches Hg (1011.0 mb)
Winds: from the NNE (20 degrees) at 5 MPH (4 knots; 2.1 m/s)
Visibility: 0.40 miles (0.64 km)
Ceiling: indefinite ceiling with vertical visibility of 0 feet AGL
Clouds: obscured sky
Weather: FG  (fog)

METAR text: LFOE 200700Z AUTO 02004KT 0500 0450 R22/0600N FG VV/// 02/01 Q1011 BECMG 8000 NSW BKN008
Conditions at: LFOE (EVREUX/FAUVILLE , FR) observed 0700 UTC 20 January 2019
Temperature: 2.0°C (36°F)
Dewpoint: 1.0°C (34°F) [RH = 93%]
Pressure (altimeter): 29.85 inches Hg (1011.0 mb)
Winds: from the NNE (20 degrees) at 5 MPH (4 knots; 2.1 m/s)
Visibility: 0.31 miles (0.50 km)
Ceiling: indefinite ceiling with vertical visibility of 0 feet AGL
Clouds: obscured sky
Weather: FG  (fog)

METAR text: LFOE 200630Z AUTO 01004KT 340V040 0300 0250 R22/0400N FG VV/// 02/02 Q1011 BECMG 8000 NSW BKN008
Conditions at: LFOE (EVREUX/FAUVILLE , FR) observed 0630 UTC 20 January 2019
Temperature: 2.0°C (36°F)
Dewpoint: 2.0°C (36°F) [RH = 100%]
Pressure (altimeter): 29.85 inches Hg (1011.0 mb)
Winds: from the N (10 degrees) at 5 MPH (4 knots; 2.1 m/s)
Visibility: 0.19 miles (0.31 km)
Ceiling: indefinite ceiling with vertical visibility of 0 feet AGL
Clouds: obscured sky
Weather: FG  (fog)

METAR text: LFOE 200600Z AUTO 01004KT 1100 0600 R22/0700D BCFG VV/// 02/02 Q1010 BECMG 3000 BR BKN002
Conditions at: LFOE (EVREUX/FAUVILLE , FR) observed 0600 UTC 20 January 2019
Temperature: 2.0°C (36°F)
Dewpoint: 2.0°C (36°F) [RH = 100%]
Pressure (altimeter): 29.82 inches Hg (1010.0 mb)
Winds: from the N (10 degrees) at 5 MPH (4 knots; 2.1 m/s)
Visibility: 0.68 miles (1.09 km)
Ceiling: indefinite ceiling with vertical visibility of 0 feet AGL
Clouds: obscured sky
Weather: BCFG  (patches of fog)

METAR text: LFOE 200530Z AUTO 02004KT 0650 R22/0700D FG VV/// 02/02 Q1010 BECMG 3000 BR BKN002
Conditions at: LFOE (EVREUX/FAUVILLE , FR) observed 0530 UTC 20 January 2019
Temperature: 2.0°C (36°F)
Dewpoint: 2.0°C (36°F) [RH = 100%]
Pressure (altimeter): 29.82 inches Hg (1010.0 mb)
Winds: from the NNE (20 degrees) at 5 MPH (4 knots; 2.1 m/s)
Visibility: 0.40 miles (0.64 km)
Ceiling: indefinite ceiling with vertical visibility of 0 feet AGL
Clouds: obscured sky
Weather: FG  (fog)

METAR text: LFOE 200500Z AUTO 02003KT 0350 0300 R22/0450N FG VV/// 02/02 Q1010 BECMG 3000 BR BKN002
Conditions at: LFOE (EVREUX/FAUVILLE , FR) observed 0500 UTC 20 January 2019
Temperature: 2.0°C (36°F)
Dewpoint: 2.0°C (36°F) [RH = 100%]
Pressure (altimeter): 29.82 inches Hg (1010.0 mb)
Winds: from the NNE (20 degrees) at 3 MPH (3 knots; 1.5 m/s)
Visibility: 0.22 miles (0.35 km)
Ceiling: indefinite ceiling with vertical visibility of 0 feet AGL
Clouds: obscured sky
Weather: FG  (fog)

METAR text: LFOE 200430Z AUTO 01003KT 0300 0250 R22/0400N FG VV/// 02/02 Q1010 BECMG 3000 BR BKN002
Conditions at: LFOE (EVREUX/FAUVILLE , FR) observed 0430 UTC 20 January 2019
Temperature: 2.0°C (36°F)
Dewpoint: 2.0°C (36°F) [RH = 100%]
Pressure (altimeter): 29.82 inches Hg (1010.0 mb)
Winds: from the N (10 degrees) at 3 MPH (3 knots; 1.5 m/s)
Visibility: 0.19 miles (0.31 km)
Ceiling: indefinite ceiling with vertical visibility of 0 feet AGL
Clouds: obscured sky
Weather: FG  (fog)

METAR text: LFOE 200400Z AUTO 02003KT 0250 R22/0300N FG VV/// 02/01 Q1010 BECMG 0500 FG
Conditions at: LFOE (EVREUX/FAUVILLE , FR) observed 0400 UTC 20 January 2019
Temperature: 2.0°C (36°F)
Dewpoint: 1.0°C (34°F) [RH = 93%]
Pressure (altimeter): 29.82 inches Hg (1010.0 mb)
Winds: from the NNE (20 degrees) at 3 MPH (3 knots; 1.5 m/s)
Visibility: 0.16 miles (0.26 km)
Ceiling: indefinite ceiling with vertical visibility of 0 feet AGL
Clouds: obscured sky
Weather: FG  (fog)

METAR text: LFOE 200330Z AUTO 01003KT 0250 R22/0350N FG VV/// 02/02 Q1009 BECMG 0500 FG
Conditions at: LFOE (EVREUX/FAUVILLE , FR) observed 0330 UTC 20 January 2019
Temperature: 2.0°C (36°F)
Dewpoint: 2.0°C (36°F) [RH = 100%]
Pressure (altimeter): 29.79 inches Hg (1009.0 mb)
Winds: from the N (10 degrees) at 3 MPH (3 knots; 1.5 m/s)
Visibility: 0.16 miles (0.26 km)
Ceiling: indefinite ceiling with vertical visibility of 0 feet AGL
Clouds: obscured sky
Weather: FG  (fog)

METAR text: LFOE 200300Z AUTO 03003KT 0250 0200 R22/0325N FG VV/// 02/02 Q1009 BECMG 0500 FG
Conditions at: LFOE (EVREUX/FAUVILLE , FR) observed 0300 UTC 20 January 2019
Temperature: 2.0°C (36°F)
Dewpoint: 2.0°C (36°F) [RH = 100%]
Pressure (altimeter): 29.79 inches Hg (1009.0 mb)
Winds: from the NNE (30 degrees) at 3 MPH (3 knots; 1.5 m/s)
Visibility: 0.16 miles (0.26 km)
Ceiling: indefinite ceiling with vertical visibility of 0 feet AGL
Clouds: obscured sky
Weather: FG  (fog)

METAR text: LFOE 200230Z AUTO 07003KT 030V090 0250 R22/0350N FG VV/// 02/02 Q1009 BECMG 0500 FG
Conditions at: LFOE (EVREUX/FAUVILLE , FR) observed 0230 UTC 20 January 2019
Temperature: 2.0°C (36°F)
Dewpoint: 2.0°C (36°F) [RH = 100%]
Pressure (altimeter): 29.79 inches Hg (1009.0 mb)
Winds: from the ENE (70 degrees) at 3 MPH (3 knots; 1.5 m/s)
Visibility: 0.16 miles (0.26 km)
Ceiling: indefinite ceiling with vertical visibility of 0 feet AGL
Clouds: obscured sky
Weather: FG  (fog)

METAR text: LFOE 200200Z AUTO 06003KT 0250 R22/0325N FG VV/// 02/02 Q1009 TEMPO 2000 -RADZ BKN002
Conditions at: LFOE (EVREUX/FAUVILLE , FR) observed 0200 UTC 20 January 2019
Temperature: 2.0°C (36°F)
Dewpoint: 2.0°C (36°F) [RH = 100%]
Pressure (altimeter): 29.79 inches Hg (1009.0 mb)
Winds: from the ENE (60 degrees) at 3 MPH (3 knots; 1.5 m/s)
Visibility: 0.16 miles (0.26 km)
Ceiling: indefinite ceiling with vertical visibility of 0 feet AGL
Clouds: obscured sky
Weather: FG  (fog)

METAR text: LFOE 200130Z AUTO 06003KT 0300 0250 R22/0325N FG VV/// 02/02 Q1009 TEMPO 2000 -RADZ BKN002
Conditions at: LFOE (EVREUX/FAUVILLE , FR) observed 0130 UTC 20 January 2019
Temperature: 2.0°C (36°F)
Dewpoint: 2.0°C (36°F) [RH = 100%]
Pressure (altimeter): 29.79 inches Hg (1009.0 mb)
Winds: from the ENE (60 degrees) at 3 MPH (3 knots; 1.5 m/s)
Visibility: 0.19 miles (0.31 km)
Ceiling: indefinite ceiling with vertical visibility of 0 feet AGL
Clouds: obscured sky
Weather: FG  (fog)

METAR text: LFOE 200100Z AUTO 06003KT 0250 R22/0325N FG VV/// 02/02 Q1009 TEMPO 2000 -RADZ BKN002
Conditions at: LFOE (EVREUX/FAUVILLE , FR) observed 0100 UTC 20 January 2019
Temperature: 2.0°C (36°F)
Dewpoint: 2.0°C (36°F) [RH = 100%]
Pressure (altimeter): 29.79 inches Hg (1009.0 mb)
Winds: from the ENE (60 degrees) at 3 MPH (3 knots; 1.5 m/s)
Visibility: 0.16 miles (0.26 km)
Ceiling: indefinite ceiling with vertical visibility of 0 feet AGL
Clouds: obscured sky
Weather: FG  (fog)

METAR text: LFOE 200030Z AUTO 07003KT 0350 R22/0400N FG VV/// 02/01 Q1009 TEMPO 2000 -RADZ BKN002
Conditions at: LFOE (EVREUX/FAUVILLE , FR) observed 0030 UTC 20 January 2019
Temperature: 2.0°C (36°F)
Dewpoint: 1.0°C (34°F) [RH = 93%]
Pressure (altimeter): 29.79 inches Hg (1009.0 mb)
Winds: from the ENE (70 degrees) at 3 MPH (3 knots; 1.5 m/s)
Visibility: 0.22 miles (0.35 km)
Ceiling: indefinite ceiling with vertical visibility of 0 feet AGL
Clouds: obscured sky
Weather: FG  (fog)

METAR text: LFOE 200000Z AUTO 04003KT 0550 0500 R22/0600N FG VV/// 02/01 Q1009 TEMPO 2000 -RADZ BKN002
Conditions at: LFOE (EVREUX/FAUVILLE , FR) observed 0000 UTC 20 January 2019
Temperature: 2.0°C (36°F)
Dewpoint: 1.0°C (34°F) [RH = 93%]
Pressure (altimeter): 29.79 inches Hg (1009.0 mb)
Winds: from the NE (40 degrees) at 3 MPH (3 knots; 1.5 m/s)
Visibility: 0.34 miles (0.55 km)
Ceiling: indefinite ceiling with vertical visibility of 0 feet AGL
Clouds: obscured sky
Weather: FG  (fog)

METAR text: LFOE 192330Z AUTO 05003KT 0600 R22/0750N FG OVC003 02/01 Q1009 TEMPO 2000 -RADZ
Conditions at: LFOE (EVREUX/FAUVILLE , FR) observed 2330 UTC 19 January 2019
Temperature: 2.0°C (36°F)
Dewpoint: 1.0°C (34°F) [RH = 93%]
Pressure (altimeter): 29.79 inches Hg (1009.0 mb)
Winds: from the NE (50 degrees) at 3 MPH (3 knots; 1.5 m/s)
Visibility: 0.37 miles (0.60 km)
Ceiling: 300 feet AGL
Clouds: overcast cloud deck at 300 feet AGL
Weather: FG  (fog)

METAR text: LFOE 192300Z AUTO 08003KT 0700 0650 R22/0900D FG OVC003 01/01 Q1009 TEMPO 2000 -RADZ
Conditions at: LFOE (EVREUX/FAUVILLE , FR) observed 2300 UTC 19 January 2019
Temperature: 1.0°C (34°F)
Dewpoint: 1.0°C (34°F) [RH = 100%]
Pressure (altimeter): 29.79 inches Hg (1009.0 mb)
Winds: from the E (80 degrees) at 3 MPH (3 knots; 1.5 m/s)
Visibility: 0.43 miles (0.69 km)
Ceiling: 300 feet AGL
Clouds: overcast cloud deck at 300 feet AGL
Weather: FG  (fog)

METAR text: LFOE 192230Z AUTO 04003KT 1300 0900 R22/1400D BCFG OVC003 01/01 Q1008 TEMPO 2000 -RADZ
Conditions at: LFOE (EVREUX/FAUVILLE , FR) observed 2230 UTC 19 January 2019
Temperature: 1.0°C (34°F)
Dewpoint: 1.0°C (34°F) [RH = 100%]
Pressure (altimeter): 29.76 inches Hg (1008.0 mb)
Winds: from the NE (40 degrees) at 3 MPH (3 knots; 1.5 m/s)
Visibility: 0.81 miles (1.30 km)
Ceiling: 300 feet AGL
Clouds: overcast cloud deck at 300 feet AGL
Weather: BCFG  (patches of fog)

METAR text: LFOE 192200Z AUTO 11004KT 1300 1000 R22/1900U BR OVC002 01/01 Q1008 TEMPO 2000 -RADZ
Conditions at: LFOE (EVREUX/FAUVILLE , FR) observed 2200 UTC 19 January 2019
Temperature: 1.0°C (34°F)
Dewpoint: 1.0°C (34°F) [RH = 100%]
Pressure (altimeter): 29.76 inches Hg (1008.0 mb)
Winds: from the ESE (110 degrees) at 5 MPH (4 knots; 2.1 m/s)
Visibility: 0.81 miles (1.30 km)
Ceiling: 200 feet AGL
Clouds: overcast cloud deck at 200 feet AGL
Weather: BR  (mist)

METAR text: LFOE 192130Z AUTO 11005KT 1100 1000 R22/1500N BR VV/// 01/01 Q1008 TEMPO 2000 -RADZ BKN002
Conditions at: LFOE (EVREUX/FAUVILLE , FR) observed 2130 UTC 19 January 2019
Temperature: 1.0°C (34°F)
Dewpoint: 1.0°C (34°F) [RH = 100%]
Pressure (altimeter): 29.76 inches Hg (1008.0 mb)
Winds: from the ESE (110 degrees) at 6 MPH (5 knots; 2.6 m/s)
Visibility: 0.68 miles (1.09 km)
Ceiling: indefinite ceiling with vertical visibility of 0 feet AGL
Clouds: obscured sky
Weather: BR  (mist)

METAR text: LFOE 192100Z AUTO 11005KT 1200 R22/1500U BR VV/// 01/01 Q1008 TEMPO 2000 -RADZ BKN002
Conditions at: LFOE (EVREUX/FAUVILLE , FR) observed 2100 UTC 19 January 2019
Temperature: 1.0°C (34°F)
Dewpoint: 1.0°C (34°F) [RH = 100%]
Pressure (altimeter): 29.76 inches Hg (1008.0 mb)
Winds: from the ESE (110 degrees) at 6 MPH (5 knots; 2.6 m/s)
Visibility: 0.75 miles (1.21 km)
Ceiling: indefinite ceiling with vertical visibility of 0 feet AGL
Clouds: obscured sky
Weather: BR  (mist)

METAR text: LFOE 192030Z AUTO 09004KT 1000 R22/1300D BR VV/// ///TCU 01/01 Q1008 TEMPO 2000 -RADZ BKN002
Conditions at: LFOE (EVREUX/FAUVILLE , FR) observed 2030 UTC 19 January 2019
Temperature: 1.0°C (34°F)
Dewpoint: 1.0°C (34°F) [RH = 100%]
Pressure (altimeter): 29.76 inches Hg (1008.0 mb)
Winds: from the E (90 degrees) at 5 MPH (4 knots; 2.1 m/s)
Visibility: 0.62 miles (1.00 km)
Ceiling: indefinite ceiling with vertical visibility of 0 feet AGL
Clouds: obscured sky
Weather: BR  (mist)

METAR text: LFOE 192000Z AUTO 09004KT 1100 R22/1400N BR VV/// 01/01 Q1008 NOSIG
Conditions at: LFOE (EVREUX/FAUVILLE , FR) observed 2000 UTC 19 January 2019
Temperature: 1.0°C (34°F)
Dewpoint: 1.0°C (34°F) [RH = 100%]
Pressure (altimeter): 29.76 inches Hg (1008.0 mb)
Winds: from the E (90 degrees) at 5 MPH (4 knots; 2.1 m/s)
Visibility: 0.68 miles (1.09 km)
Ceiling: indefinite ceiling with vertical visibility of 0 feet AGL
Clouds: obscured sky
Weather: BR  (mist)

METAR text: LFOE 191930Z AUTO 10004KT 1500 BR VV/// 01/01 Q1008 NOSIG
Conditions at: LFOE (EVREUX/FAUVILLE , FR) observed 1930 UTC 19 January 2019
Temperature: 1.0°C (34°F)
Dewpoint: 1.0°C (34°F) [RH = 100%]
Pressure (altimeter): 29.76 inches Hg (1008.0 mb)
Winds: from the E (100 degrees) at 5 MPH (4 knots; 2.1 m/s)
Visibility: 0.93 miles (1.50 km)
Ceiling: indefinite ceiling with vertical visibility of 0 feet AGL
Clouds: obscured sky
Weather: BR  (mist)

METAR text: LFOE 191900Z AUTO 11006KT 1500 1300 R22/1900D BR OVC002 01/01 Q1008 TEMPO VV///
Conditions at: LFOE (EVREUX/FAUVILLE , FR) observed 1900 UTC 19 January 2019
Temperature: 1.0°C (34°F)
Dewpoint: 1.0°C (34°F) [RH = 100%]
Pressure (altimeter): 29.76 inches Hg (1008.0 mb)
Winds: from the ESE (110 degrees) at 7 MPH (6 knots; 3.1 m/s)
Visibility: 0.93 miles (1.50 km)
Ceiling: 200 feet AGL
Clouds: overcast cloud deck at 200 feet AGL
Weather: BR  (mist)

METAR text: LFOE 191830Z AUTO 10005KT 1400 R22/1800N BR VV/// 01/01 Q1008 NOSIG
Conditions at: LFOE (EVREUX/FAUVILLE , FR) observed 1830 UTC 19 January 2019
Temperature: 1.0°C (34°F)
Dewpoint: 1.0°C (34°F) [RH = 100%]
Pressure (altimeter): 29.76 inches Hg (1008.0 mb)
Winds: from the E (100 degrees) at 6 MPH (5 knots; 2.6 m/s)
Visibility: 0.87 miles (1.40 km)
Ceiling: indefinite ceiling with vertical visibility of 0 feet AGL
Clouds: obscured sky
Weather: BR  (mist)

Forecast for: LFOE (EVREUX/FAUVILLE , FR)
Text: TAF LFOE 202000Z 2021/2121 02005KT 8000 BKN010
Forecast period: 2100 to 2200 UTC 20 January 2019
Forecast type: FROM: standard forecast or significant change
Winds: from the NNE (20 degrees) at 6 MPH (5 knots; 2.6 m/s)
Visibility: 5 miles (8 km)
Ceiling: 1000 feet AGL
Clouds: broken clouds at 1000 feet AGL
Weather: no significant weather forecast for this period
Text: BECMG 2022/2024 NSC
Forecast period: 2200 UTC 20 January 2019 to 2100 UTC 21 January 2019
Forecast type: BECOMING: Conditions expected to become as follows by 0000 UTC 21 January 2019
Winds: from the NNE (20 degrees) at 6 MPH (5 knots; 2.6 m/s)
Visibility: 5 miles (8 km)
Ceiling: unknown
Clouds: missing
Weather: no significant weather forecast for this period
Text: PROB40
Forecast period: 2200 UTC 20 January 2019 to 0800 UTC 21 January 2019
Forecast type: TEMPORARY: The following changes expected for less than half the time period
Visibility: 0.50 miles (0.80 km)
Ceiling: unknown
Clouds: missing
Weather: FZFG  (freezing fog)